Front Ariake — C6RX9 — position and weather

sailwx.info

Track history (hours):
 
Tides and Currents Weather Stations Pressure Air Temp Water Temp Dewpoint Dewpoint Depression Visibility Wind Speed Wind Dir Waves Ship Positions

Front Ariake

Last reported at 2017-Jul-11 19:03 UTC. Time now 2017-Aug-18 12:45 UTC.
Position S 19°10' E 058°03'.
Warning: this ship's position is 37 days out of date.

Length 333 m; draft 11 m.

Type: Tanker. MMSI: 311226956.

Date/timePositionNaut miles runAvg speedWind from/ knotsBaromVisibWave heightAir tempDewpointWater temp
2017-Jul-11 19:03S 19°10' E 058°03'513.5
2017-Jul-11 18:39S 19°14' E 057°59'213.6
2017-Jul-11 18:30S 19°16' E 057°58'713.7
2017-Jul-11 18:00S 19°21' E 057°53'813.8
2017-Jul-11 17:25S 19°27' E 057°48'513.3
2017-Jul-11 17:00S 19°32' E 057°44'612.9
2017-Jul-11 16:30S 19°37' E 057°40'713.2
2017-Jul-11 16:00S 19°42' E 057°36'713.1
2017-Jul-11 15:30S 19°47' E 057°31'613.0
2017-Jul-11 15:00S 19°53' E 057°30'613.0
2017-Jul-11 14:30S 19°60' E 057°28'510.6
2017-Jul-11 14:00S 20°05' E 057°28'3 5.5
2017-Jul-11 13:30S 20°07' E 057°28'0 0.9
2017-Jul-11 13:00S 20°08' E 057°27'2 4.2
2017-Jul-11 12:30S 20°08' E 057°25'2 4.7
2017-Jul-11 12:00S 20°09' E 057°23'4 7.9
2017-Jul-11 11:30S 20°11' E 057°19'612.6
2017-Jul-11 11:00S 20°13' E 057°13'713.2
2017-Jul-11 10:30S 20°16' E 057°06'  
2017-Jul-07 06:22S 31°12' E 036°15'5113.1
2017-Jul-07 02:28S 31°33' E 035°20'1413.5
2017-Jul-07 01:24S 31°39' E 035°05'713.3
2017-Jul-07 00:51S 31°42' E 034°57'513.2
2017-Jul-07 00:29S 31°44' E 034°52'1413.1
2017-Jul-06 23:27S 31°50' E 034°37'212.2
2017-Jul-06 23:16S 31°50' E 034°35'  
2017-Jul-03 22:24S 34°16' E 018°02'1611.7
2017-Jul-03 21:04S 34°01' E 018°07'111.3
2017-Jul-03 21:00S 34°00' E 018°07'5 9.7
2017-Jul-03 20:30S 33°56' E 018°09'3 5.5
2017-Jul-03 20:00S 33°53' E 018°10'0 0.3
2017-Jul-03 19:30S 33°53' E 018°10'0 0.8
2017-Jul-03 18:59S 33°53' E 018°11'1 1.3
2017-Jul-03 18:30S 33°53' E 018°12'2 4.2
2017-Jul-03 18:00S 33°52' E 018°09'2 5.0
2017-Jul-03 17:31S 33°50' E 018°07'  
Track history (hours):
 
Tides and Currents Weather Stations Pressure Air Temp Water Temp Dewpoint Dewpoint Depression Visibility Wind Speed Wind Dir Waves Ship Positions

Front Ariake

Last reported at 2017-Jul-11 19:03 UTC. Time now 2017-Aug-18 12:45 UTC.
Position S 19°10' E 058°03'.
Warning: this ship's position is 37 days out of date.

Length 333 m; draft 11 m.

Type: Tanker. MMSI: 311226956.

Date/timePositionNaut miles runAvg speedWind from/ knotsBaromVisibWave heightAir tempDewpointWater temp
2017-Jul-11 19:03S 19°10' E 058°03'513.5
2017-Jul-11 18:39S 19°14' E 057°59'213.6
2017-Jul-11 18:30S 19°16' E 057°58'713.7
2017-Jul-11 18:00S 19°21' E 057°53'813.8
2017-Jul-11 17:25S 19°27' E 057°48'513.3
2017-Jul-11 17:00S 19°32' E 057°44'612.9
2017-Jul-11 16:30S 19°37' E 057°40'713.2
2017-Jul-11 16:00S 19°42' E 057°36'713.1
2017-Jul-11 15:30S 19°47' E 057°31'613.0
2017-Jul-11 15:00S 19°53' E 057°30'613.0
2017-Jul-11 14:30S 19°60' E 057°28'510.6
2017-Jul-11 14:00S 20°05' E 057°28'3 5.5
2017-Jul-11 13:30S 20°07' E 057°28'0 0.9
2017-Jul-11 13:00S 20°08' E 057°27'2 4.2
2017-Jul-11 12:30S 20°08' E 057°25'2 4.7
2017-Jul-11 12:00S 20°09' E 057°23'4 7.9
2017-Jul-11 11:30S 20°11' E 057°19'612.6
2017-Jul-11 11:00S 20°13' E 057°13'713.2
2017-Jul-11 10:30S 20°16' E 057°06'  
2017-Jul-07 06:22S 31°12' E 036°15'5113.1
2017-Jul-07 02:28S 31°33' E 035°20'1413.5
2017-Jul-07 01:24S 31°39' E 035°05'713.3
2017-Jul-07 00:51S 31°42' E 034°57'513.2
2017-Jul-07 00:29S 31°44' E 034°52'1413.1
2017-Jul-06 23:27S 31°50' E 034°37'212.2
2017-Jul-06 23:16S 31°50' E 034°35'  
2017-Jul-03 22:24S 34°16' E 018°02'1611.7
2017-Jul-03 21:04S 34°01' E 018°07'111.3
2017-Jul-03 21:00S 34°00' E 018°07'5 9.7
2017-Jul-03 20:30S 33°56' E 018°09'3 5.5
2017-Jul-03 20:00S 33°53' E 018°10'0 0.3
2017-Jul-03 19:30S 33°53' E 018°10'0 0.8
2017-Jul-03 18:59S 33°53' E 018°11'1 1.3
2017-Jul-03 18:30S 33°53' E 018°12'2 4.2
2017-Jul-03 18:00S 33°52' E 018°09'2 5.0
2017-Jul-03 17:31S 33°50' E 018°07'  

Dump ship's entire track history